sensor_id;sensor_type;location;lat;lon;timestamp;temperature;humidity
22450;DHT22;11392;57.390;-2.468;2023-04-03T00:00:56;3.10;99.90
22450;DHT22;11392;57.390;-2.468;2023-04-03T00:03:23;3.10;99.90
22450;DHT22;11392;57.390;-2.468;2023-04-03T00:05:51;3.10;99.90
22450;DHT22;11392;57.390;-2.468;2023-04-03T00:08:19;3.10;99.90
22450;DHT22;11392;57.390;-2.468;2023-04-03T00:10:46;3.10;99.90
22450;DHT22;11392;57.390;-2.468;2023-04-03T00:13:13;3.00;99.90
22450;DHT22;11392;57.390;-2.468;2023-04-03T00:15:41;3.00;99.90
22450;DHT22;11392;57.390;-2.468;2023-04-03T00:18:08;3.00;99.90
22450;DHT22;11392;57.390;-2.468;2023-04-03T00:20:35;2.90;99.90
22450;DHT22;11392;57.390;-2.468;2023-04-03T00:23:03;2.90;99.90
22450;DHT22;11392;57.390;-2.468;2023-04-03T00:25:31;2.90;99.90
22450;DHT22;11392;57.390;-2.468;2023-04-03T00:27:58;2.90;99.90
22450;DHT22;11392;57.390;-2.468;2023-04-03T00:30:25;2.80;99.90
22450;DHT22;11392;57.390;-2.468;2023-04-03T00:32:52;2.90;99.90
22450;DHT22;11392;57.390;-2.468;2023-04-03T00:35:21;2.80;99.90
22450;DHT22;11392;57.390;-2.468;2023-04-03T00:37:50;2.80;99.90
22450;DHT22;11392;57.390;-2.468;2023-04-03T00:40:17;2.80;99.90
22450;DHT22;11392;57.390;-2.468;2023-04-03T00:42:47;2.70;99.90
22450;DHT22;11392;57.390;-2.468;2023-04-03T00:45:26;2.70;99.90
22450;DHT22;11392;57.390;-2.468;2023-04-03T00:47:53;2.70;99.90
22450;DHT22;11392;57.390;-2.468;2023-04-03T00:50:21;2.70;99.90
22450;DHT22;11392;57.390;-2.468;2023-04-03T00:52:48;2.70;99.90
22450;DHT22;11392;57.390;-2.468;2023-04-03T00:55:16;2.60;99.90
22450;DHT22;11392;57.390;-2.468;2023-04-03T00:57:44;2.60;99.90
22450;DHT22;11392;57.390;-2.468;2023-04-03T01:00:16;2.60;99.90
22450;DHT22;11392;57.390;-2.468;2023-04-03T01:02:43;2.60;99.90
22450;DHT22;11392;57.390;-2.468;2023-04-03T01:05:12;2.60;99.90
22450;DHT22;11392;57.390;-2.468;2023-04-03T01:07:41;2.60;99.90
22450;DHT22;11392;57.390;-2.468;2023-04-03T01:10:10;2.60;99.90
22450;DHT22;11392;57.390;-2.468;2023-04-03T01:12:43;2.60;99.90
22450;DHT22;11392;57.390;-2.468;2023-04-03T01:15:22;2.60;99.90
22450;DHT22;11392;57.390;-2.468;2023-04-03T01:17:53;2.60;99.90
22450;DHT22;11392;57.390;-2.468;2023-04-03T01:25:40;2.60;99.90
22450;DHT22;11392;57.390;-2.468;2023-04-03T01:28:11;2.60;99.90
22450;DHT22;11392;57.390;-2.468;2023-04-03T01:30:50;2.60;99.90
22450;DHT22;11392;57.390;-2.468;2023-04-03T01:33:17;2.50;99.90
22450;DHT22;11392;57.390;-2.468;2023-04-03T01:35:45;2.50;99.90
22450;DHT22;11392;57.390;-2.468;2023-04-03T01:38:12;2.50;99.90
22450;DHT22;11392;57.390;-2.468;2023-04-03T01:40:40;2.50;99.90
22450;DHT22;11392;57.390;-2.468;2023-04-03T01:43:08;2.60;99.90
22450;DHT22;11392;57.390;-2.468;2023-04-03T01:45:35;2.60;99.90
22450;DHT22;11392;57.390;-2.468;2023-04-03T01:48:03;2.60;99.90
22450;DHT22;11392;57.390;-2.468;2023-04-03T01:50:31;2.50;99.90
22450;DHT22;11392;57.390;-2.468;2023-04-03T01:52:58;2.50;99.90
22450;DHT22;11392;57.390;-2.468;2023-04-03T01:55:25;2.50;99.90
22450;DHT22;11392;57.390;-2.468;2023-04-03T01:57:52;2.50;99.90
22450;DHT22;11392;57.390;-2.468;2023-04-03T02:00:20;2.50;99.90
22450;DHT22;11392;57.390;-2.468;2023-04-03T02:02:47;2.50;99.90
22450;DHT22;11392;57.390;-2.468;2023-04-03T02:05:14;2.50;99.90
22450;DHT22;11392;57.390;-2.468;2023-04-03T02:07:41;2.50;99.90
22450;DHT22;11392;57.390;-2.468;2023-04-03T02:10:09;2.50;99.90
22450;DHT22;11392;57.390;-2.468;2023-04-03T02:12:36;2.50;99.90
22450;DHT22;11392;57.390;-2.468;2023-04-03T02:15:04;2.50;99.90
22450;DHT22;11392;57.390;-2.468;2023-04-03T02:17:31;2.50;99.90
22450;DHT22;11392;57.390;-2.468;2023-04-03T02:19:58;2.40;99.90
22450;DHT22;11392;57.390;-2.468;2023-04-03T02:22:25;2.40;99.90
22450;DHT22;11392;57.390;-2.468;2023-04-03T02:24:52;2.40;99.90
22450;DHT22;11392;57.390;-2.468;2023-04-03T02:27:19;2.30;99.90
22450;DHT22;11392;57.390;-2.468;2023-04-03T02:29:46;2.30;99.90
22450;DHT22;11392;57.390;-2.468;2023-04-03T02:32:13;2.20;99.90
22450;DHT22;11392;57.390;-2.468;2023-04-03T02:34:40;2.20;99.90
22450;DHT22;11392;57.390;-2.468;2023-04-03T02:37:07;2.20;99.90
22450;DHT22;11392;57.390;-2.468;2023-04-03T02:39:34;2.20;99.90
22450;DHT22;11392;57.390;-2.468;2023-04-03T02:42:02;2.10;99.90
22450;DHT22;11392;57.390;-2.468;2023-04-03T02:44:29;2.10;99.90
22450;DHT22;11392;57.390;-2.468;2023-04-03T02:46:56;2.10;99.90
22450;DHT22;11392;57.390;-2.468;2023-04-03T02:49:23;2.10;99.90
22450;DHT22;11392;57.390;-2.468;2023-04-03T02:51:50;2.20;99.90
22450;DHT22;11392;57.390;-2.468;2023-04-03T02:54:17;2.20;99.90
22450;DHT22;11392;57.390;-2.468;2023-04-03T02:56:44;2.20;99.90
22450;DHT22;11392;57.390;-2.468;2023-04-03T02:59:11;2.10;99.90
22450;DHT22;11392;57.390;-2.468;2023-04-03T03:01:38;2.20;99.90
22450;DHT22;11392;57.390;-2.468;2023-04-03T03:04:06;2.20;99.90
22450;DHT22;11392;57.390;-2.468;2023-04-03T03:06:33;2.20;99.90
22450;DHT22;11392;57.390;-2.468;2023-04-03T03:09:00;2.20;99.90
22450;DHT22;11392;57.390;-2.468;2023-04-03T03:11:27;2.20;99.90
22450;DHT22;11392;57.390;-2.468;2023-04-03T03:13:54;2.10;99.90
22450;DHT22;11392;57.390;-2.468;2023-04-03T03:16:21;2.00;99.90
22450;DHT22;11392;57.390;-2.468;2023-04-03T03:18:48;2.00;99.90
22450;DHT22;11392;57.390;-2.468;2023-04-03T03:21:15;2.00;99.90
22450;DHT22;11392;57.390;-2.468;2023-04-03T03:23:42;2.00;99.90
22450;DHT22;11392;57.390;-2.468;2023-04-03T03:26:10;2.00;99.90
22450;DHT22;11392;57.390;-2.468;2023-04-03T03:28:39;1.90;99.90
22450;DHT22;11392;57.390;-2.468;2023-04-03T03:31:08;1.90;99.90
22450;DHT22;11392;57.390;-2.468;2023-04-03T03:33:35;1.90;99.90
22450;DHT22;11392;57.390;-2.468;2023-04-03T03:36:02;1.90;99.90
22450;DHT22;11392;57.390;-2.468;2023-04-03T03:38:29;2.00;99.90
22450;DHT22;11392;57.390;-2.468;2023-04-03T03:40:56;1.90;99.90
22450;DHT22;11392;57.390;-2.468;2023-04-03T03:43:23;1.90;99.90
22450;DHT22;11392;57.390;-2.468;2023-04-03T03:45:52;1.90;99.90
22450;DHT22;11392;57.390;-2.468;2023-04-03T03:48:20;1.80;99.90
22450;DHT22;11392;57.390;-2.468;2023-04-03T03:50:47;1.80;99.90
22450;DHT22;11392;57.390;-2.468;2023-04-03T03:53:15;1.70;99.90
22450;DHT22;11392;57.390;-2.468;2023-04-03T03:55:42;1.70;99.90
22450;DHT22;11392;57.390;-2.468;2023-04-03T03:58:09;1.70;99.90
22450;DHT22;11392;57.390;-2.468;2023-04-03T04:00:36;1.70;99.90
22450;DHT22;11392;57.390;-2.468;2023-04-03T04:03:03;1.70;99.90
22450;DHT22;11392;57.390;-2.468;2023-04-03T04:05:31;1.80;99.90
22450;DHT22;11392;57.390;-2.468;2023-04-03T04:07:58;1.80;99.90
22450;DHT22;11392;57.390;-2.468;2023-04-03T04:10:25;1.80;99.90
22450;DHT22;11392;57.390;-2.468;2023-04-03T04:12:52;1.80;99.90
22450;DHT22;11392;57.390;-2.468;2023-04-03T04:15:19;1.80;99.90
22450;DHT22;11392;57.390;-2.468;2023-04-03T04:17:48;1.70;99.90
22450;DHT22;11392;57.390;-2.468;2023-04-03T04:20:15;1.60;99.90
22450;DHT22;11392;57.390;-2.468;2023-04-03T04:22:42;1.60;99.90
22450;DHT22;11392;57.390;-2.468;2023-04-03T04:25:09;1.60;99.90
22450;DHT22;11392;57.390;-2.468;2023-04-03T04:27:37;1.50;99.90
22450;DHT22;11392;57.390;-2.468;2023-04-03T04:30:05;1.50;99.90
22450;DHT22;11392;57.390;-2.468;2023-04-03T04:32:32;1.60;99.90
22450;DHT22;11392;57.390;-2.468;2023-04-03T04:34:59;1.60;99.90
22450;DHT22;11392;57.390;-2.468;2023-04-03T04:37:27;1.50;99.90
22450;DHT22;11392;57.390;-2.468;2023-04-03T04:39:54;1.60;99.90
22450;DHT22;11392;57.390;-2.468;2023-04-03T04:42:21;1.60;99.90
22450;DHT22;11392;57.390;-2.468;2023-04-03T04:44:48;1.60;99.90
22450;DHT22;11392;57.390;-2.468;2023-04-03T04:47:16;1.60;99.90
22450;DHT22;11392;57.390;-2.468;2023-04-03T04:49:43;1.70;99.90
22450;DHT22;11392;57.390;-2.468;2023-04-03T04:52:10;1.70;99.90
22450;DHT22;11392;57.390;-2.468;2023-04-03T04:54:37;1.80;99.90
22450;DHT22;11392;57.390;-2.468;2023-04-03T04:57:04;1.80;99.90
22450;DHT22;11392;57.390;-2.468;2023-04-03T04:59:32;1.70;99.90
22450;DHT22;11392;57.390;-2.468;2023-04-03T05:01:59;1.70;99.90
22450;DHT22;11392;57.390;-2.468;2023-04-03T05:04:27;1.70;99.90
22450;DHT22;11392;57.390;-2.468;2023-04-03T05:06:54;1.70;99.90
22450;DHT22;11392;57.390;-2.468;2023-04-03T05:09:21;1.70;99.90
22450;DHT22;11392;57.390;-2.468;2023-04-03T05:11:48;1.70;99.90
22450;DHT22;11392;57.390;-2.468;2023-04-03T05:14:16;1.70;99.90
22450;DHT22;11392;57.390;-2.468;2023-04-03T05:16:43;1.60;99.90
22450;DHT22;11392;57.390;-2.468;2023-04-03T05:19:10;1.60;99.90
22450;DHT22;11392;57.390;-2.468;2023-04-03T05:21:37;1.60;99.90
22450;DHT22;11392;57.390;-2.468;2023-04-03T05:24:04;1.70;99.90
22450;DHT22;11392;57.390;-2.468;2023-04-03T05:26:32;1.70;99.90
22450;DHT22;11392;57.390;-2.468;2023-04-03T05:28:59;1.70;99.90
22450;DHT22;11392;57.390;-2.468;2023-04-03T05:31:26;1.70;99.90
22450;DHT22;11392;57.390;-2.468;2023-04-03T05:33:56;1.70;99.90
22450;DHT22;11392;57.390;-2.468;2023-04-03T05:36:24;1.70;99.90
22450;DHT22;11392;57.390;-2.468;2023-04-03T05:38:52;1.80;99.90
22450;DHT22;11392;57.390;-2.468;2023-04-03T05:41:19;1.90;99.90
22450;DHT22;11392;57.390;-2.468;2023-04-03T05:43:49;1.90;99.90
22450;DHT22;11392;57.390;-2.468;2023-04-03T05:46:18;1.90;99.90
22450;DHT22;11392;57.390;-2.468;2023-04-03T05:48:47;2.00;99.90
22450;DHT22;11392;57.390;-2.468;2023-04-03T05:51:25;2.10;99.90
22450;DHT22;11392;57.390;-2.468;2023-04-03T05:54:09;2.10;99.90
22450;DHT22;11392;57.390;-2.468;2023-04-03T05:56:37;2.20;99.90
22450;DHT22;11392;57.390;-2.468;2023-04-03T05:59:04;2.30;99.90
22450;DHT22;11392;57.390;-2.468;2023-04-03T06:01:31;2.40;99.90
22450;DHT22;11392;57.390;-2.468;2023-04-03T06:03:58;2.40;99.90
22450;DHT22;11392;57.390;-2.468;2023-04-03T06:06:26;2.50;99.90
22450;DHT22;11392;57.390;-2.468;2023-04-03T06:08:53;2.50;99.90
22450;DHT22;11392;57.390;-2.468;2023-04-03T06:11:20;2.50;99.90
22450;DHT22;11392;57.390;-2.468;2023-04-03T06:13:48;2.60;99.90
22450;DHT22;11392;57.390;-2.468;2023-04-03T06:16:16;2.60;99.90
22450;DHT22;11392;57.390;-2.468;2023-04-03T06:18:44;2.70;99.90
22450;DHT22;11392;57.390;-2.468;2023-04-03T06:21:11;2.70;99.90
22450;DHT22;11392;57.390;-2.468;2023-04-03T06:23:38;2.80;99.90
22450;DHT22;11392;57.390;-2.468;2023-04-03T06:26:05;2.90;99.90
22450;DHT22;11392;57.390;-2.468;2023-04-03T06:28:32;3.00;99.90
22450;DHT22;11392;57.390;-2.468;2023-04-03T06:30:59;3.10;99.90
22450;DHT22;11392;57.390;-2.468;2023-04-03T06:33:26;3.10;99.90
22450;DHT22;11392;57.390;-2.468;2023-04-03T06:35:58;3.30;99.90
22450;DHT22;11392;57.390;-2.468;2023-04-03T06:38:25;3.40;99.90
22450;DHT22;11392;57.390;-2.468;2023-04-03T06:40:52;3.40;99.90
22450;DHT22;11392;57.390;-2.468;2023-04-03T06:43:19;3.50;99.90
22450;DHT22;11392;57.390;-2.468;2023-04-03T06:45:50;3.60;99.90
22450;DHT22;11392;57.390;-2.468;2023-04-03T06:48:17;3.70;99.90
22450;DHT22;11392;57.390;-2.468;2023-04-03T06:50:44;3.80;99.90
22450;DHT22;11392;57.390;-2.468;2023-04-03T06:53:11;3.80;99.90
22450;DHT22;11392;57.390;-2.468;2023-04-03T06:55:38;4.00;99.90
22450;DHT22;11392;57.390;-2.468;2023-04-03T06:58:06;4.10;99.90
22450;DHT22;11392;57.390;-2.468;2023-04-03T07:00:33;4.20;99.90
22450;DHT22;11392;57.390;-2.468;2023-04-03T07:03:00;4.40;99.90
22450;DHT22;11392;57.390;-2.468;2023-04-03T07:05:28;4.50;99.90
22450;DHT22;11392;57.390;-2.468;2023-04-03T07:07:55;4.70;99.90
22450;DHT22;11392;57.390;-2.468;2023-04-03T07:10:22;4.80;99.90
22450;DHT22;11392;57.390;-2.468;2023-04-03T07:12:49;4.80;99.90
22450;DHT22;11392;57.390;-2.468;2023-04-03T07:15:17;4.70;99.90
22450;DHT22;11392;57.390;-2.468;2023-04-03T07:17:44;4.80;99.90
22450;DHT22;11392;57.390;-2.468;2023-04-03T07:20:11;5.10;99.90
22450;DHT22;11392;57.390;-2.468;2023-04-03T07:22:38;5.20;99.90
22450;DHT22;11392;57.390;-2.468;2023-04-03T07:25:06;5.30;99.90
22450;DHT22;11392;57.390;-2.468;2023-04-03T07:27:34;5.50;99.90
22450;DHT22;11392;57.390;-2.468;2023-04-03T07:30:01;5.50;99.90
22450;DHT22;11392;57.390;-2.468;2023-04-03T07:32:28;5.60;99.90
22450;DHT22;11392;57.390;-2.468;2023-04-03T07:34:56;5.80;99.90
22450;DHT22;11392;57.390;-2.468;2023-04-03T07:37:23;5.90;99.90
22450;DHT22;11392;57.390;-2.468;2023-04-03T07:39:50;5.80;99.90
22450;DHT22;11392;57.390;-2.468;2023-04-03T07:42:17;5.50;99.90
22450;DHT22;11392;57.390;-2.468;2023-04-03T07:44:45;5.40;99.90
22450;DHT22;11392;57.390;-2.468;2023-04-03T07:47:12;5.60;99.90
22450;DHT22;11392;57.390;-2.468;2023-04-03T07:49:41;5.60;99.90
22450;DHT22;11392;57.390;-2.468;2023-04-03T07:52:08;5.60;99.90
22450;DHT22;11392;57.390;-2.468;2023-04-03T07:54:35;5.70;99.90
22450;DHT22;11392;57.390;-2.468;2023-04-03T07:57:03;5.70;99.90
22450;DHT22;11392;57.390;-2.468;2023-04-03T07:59:30;5.90;99.90
22450;DHT22;11392;57.390;-2.468;2023-04-03T08:01:58;6.10;99.90
22450;DHT22;11392;57.390;-2.468;2023-04-03T08:04:25;6.10;99.90
22450;DHT22;11392;57.390;-2.468;2023-04-03T08:06:53;6.30;99.90
22450;DHT22;11392;57.390;-2.468;2023-04-03T08:09:20;6.30;99.90
22450;DHT22;11392;57.390;-2.468;2023-04-03T08:11:47;6.60;99.90
22450;DHT22;11392;57.390;-2.468;2023-04-03T08:14:14;7.00;99.90
22450;DHT22;11392;57.390;-2.468;2023-04-03T08:16:47;7.20;99.90
22450;DHT22;11392;57.390;-2.468;2023-04-03T08:19:15;7.40;99.90
22450;DHT22;11392;57.390;-2.468;2023-04-03T08:21:53;7.50;99.90
22450;DHT22;11392;57.390;-2.468;2023-04-03T08:24:21;7.80;99.90
22450;DHT22;11392;57.390;-2.468;2023-04-03T08:26:48;8.00;99.90
22450;DHT22;11392;57.390;-2.468;2023-04-03T08:29:15;8.10;99.90
22450;DHT22;11392;57.390;-2.468;2023-04-03T08:31:42;8.30;99.90
22450;DHT22;11392;57.390;-2.468;2023-04-03T08:34:09;8.40;99.90
22450;DHT22;11392;57.390;-2.468;2023-04-03T08:36:38;8.60;99.90
22450;DHT22;11392;57.390;-2.468;2023-04-03T08:39:04;8.80;99.90
22450;DHT22;11392;57.390;-2.468;2023-04-03T08:41:43;8.70;99.90
22450;DHT22;11392;57.390;-2.468;2023-04-03T08:49:44;8.40;99.90
22450;DHT22;11392;57.390;-2.468;2023-04-03T08:52:32;8.00;99.90
22450;DHT22;11392;57.390;-2.468;2023-04-03T08:55:07;7.80;99.90
22450;DHT22;11392;57.390;-2.468;2023-04-03T08:57:44;8.00;99.90
22450;DHT22;11392;57.390;-2.468;2023-04-03T09:00:18;8.40;99.90
22450;DHT22;11392;57.390;-2.468;2023-04-03T09:02:48;8.80;99.90
22450;DHT22;11392;57.390;-2.468;2023-04-03T09:06:22;9.00;99.90
22450;DHT22;11392;57.390;-2.468;2023-04-03T09:16:56;9.90;99.90
22450;DHT22;11392;57.390;-2.468;2023-04-03T09:24:40;9.90;99.90
22450;DHT22;11392;57.390;-2.468;2023-04-03T09:27:10;10.00;99.90
22450;DHT22;11392;57.390;-2.468;2023-04-03T09:29:41;10.00;99.90
22450;DHT22;11392;57.390;-2.468;2023-04-03T09:34:49;10.10;99.90
22450;DHT22;11392;57.390;-2.468;2023-04-03T09:37:38;10.10;99.90
22450;DHT22;11392;57.390;-2.468;2023-04-03T09:42:59;10.30;99.90
22450;DHT22;11392;57.390;-2.468;2023-04-03T09:45:33;10.30;99.90
22450;DHT22;11392;57.390;-2.468;2023-04-03T09:55:53;10.70;99.90
22450;DHT22;11392;57.390;-2.468;2023-04-03T09:58:39;10.70;99.90
22450;DHT22;11392;57.390;-2.468;2023-04-03T10:01:37;10.90;99.90
22450;DHT22;11392;57.390;-2.468;2023-04-03T10:04:11;11.00;99.90
22450;DHT22;11392;57.390;-2.468;2023-04-03T10:06:41;11.20;99.90
22450;DHT22;11392;57.390;-2.468;2023-04-03T10:12:07;11.50;99.90
22450;DHT22;11392;57.390;-2.468;2023-04-03T10:14:37;11.80;99.90
22450;DHT22;11392;57.390;-2.468;2023-04-03T10:23:15;11.90;99.90
22450;DHT22;11392;57.390;-2.468;2023-04-03T10:31:25;11.90;99.90
22450;DHT22;11392;57.390;-2.468;2023-04-03T10:34:04;12.00;99.90
22450;DHT22;11392;57.390;-2.468;2023-04-03T10:39:46;12.10;99.90
22450;DHT22;11392;57.390;-2.468;2023-04-03T10:51:16;12.10;99.90
22450;DHT22;11392;57.390;-2.468;2023-04-03T10:54:18;12.30;99.90
22450;DHT22;11392;57.390;-2.468;2023-04-03T10:58:44;12.40;99.90
22450;DHT22;11392;57.390;-2.468;2023-04-03T11:01:20;12.70;99.90
22450;DHT22;11392;57.390;-2.468;2023-04-03T11:03:52;12.50;99.90
22450;DHT22;11392;57.390;-2.468;2023-04-03T11:06:24;12.60;99.90
22450;DHT22;11392;57.390;-2.468;2023-04-03T11:09:11;12.60;99.90
22450;DHT22;11392;57.390;-2.468;2023-04-03T11:11:44;12.80;99.90
22450;DHT22;11392;57.390;-2.468;2023-04-03T11:14:34;12.90;99.90
22450;DHT22;11392;57.390;-2.468;2023-04-03T11:22:45;13.00;99.90
22450;DHT22;11392;57.390;-2.468;2023-04-03T11:27:43;13.10;99.90
22450;DHT22;11392;57.390;-2.468;2023-04-03T11:33:13;13.10;99.90
22450;DHT22;11392;57.390;-2.468;2023-04-03T11:35:48;13.20;99.90
22450;DHT22;11392;57.390;-2.468;2023-04-03T11:38:25;13.40;99.90
22450;DHT22;11392;57.390;-2.468;2023-04-03T11:40:54;13.30;99.90
22450;DHT22;11392;57.390;-2.468;2023-04-03T11:43:26;13.20;99.90
22450;DHT22;11392;57.390;-2.468;2023-04-03T11:46:02;13.30;99.90
22450;DHT22;11392;57.390;-2.468;2023-04-03T11:53:47;13.50;99.90
22450;DHT22;11392;57.390;-2.468;2023-04-03T12:01:53;13.50;99.90
22450;DHT22;11392;57.390;-2.468;2023-04-03T12:04:23;13.60;99.90
22450;DHT22;11392;57.390;-2.468;2023-04-03T12:07:01;13.40;99.90
22450;DHT22;11392;57.390;-2.468;2023-04-03T12:14:49;13.40;99.90
22450;DHT22;11392;57.390;-2.468;2023-04-03T12:17:27;13.50;99.90
22450;DHT22;11392;57.390;-2.468;2023-04-03T12:19:54;13.70;99.90
22450;DHT22;11392;57.390;-2.468;2023-04-03T12:22:22;13.80;99.90
22450;DHT22;11392;57.390;-2.468;2023-04-03T12:24:52;14.10;99.90
22450;DHT22;11392;57.390;-2.468;2023-04-03T12:27:23;13.90;99.90
22450;DHT22;11392;57.390;-2.468;2023-04-03T12:46:22;14.40;99.90
22450;DHT22;11392;57.390;-2.468;2023-04-03T12:48:53;14.30;99.90
22450;DHT22;11392;57.390;-2.468;2023-04-03T12:51:31;14.00;99.90
22450;DHT22;11392;57.390;-2.468;2023-04-03T12:54:04;13.90;99.90
22450;DHT22;11392;57.390;-2.468;2023-04-03T12:56:39;13.80;99.90
22450;DHT22;11392;57.390;-2.468;2023-04-03T12:59:33;13.90;99.90
22450;DHT22;11392;57.390;-2.468;2023-04-03T13:02:01;14.00;99.90
22450;DHT22;11392;57.390;-2.468;2023-04-03T13:04:31;14.20;99.90
22450;DHT22;11392;57.390;-2.468;2023-04-03T13:06:58;14.00;99.90
22450;DHT22;11392;57.390;-2.468;2023-04-03T13:09:27;14.20;99.90
22450;DHT22;11392;57.390;-2.468;2023-04-03T13:12:02;14.00;99.90
22450;DHT22;11392;57.390;-2.468;2023-04-03T13:14:30;13.90;99.90
22450;DHT22;11392;57.390;-2.468;2023-04-03T13:17:13;14.10;99.90
22450;DHT22;11392;57.390;-2.468;2023-04-03T13:19:42;14.10;99.90
22450;DHT22;11392;57.390;-2.468;2023-04-03T13:22:33;14.20;99.90
22450;DHT22;11392;57.390;-2.468;2023-04-03T13:25:08;14.50;99.90
22450;DHT22;11392;57.390;-2.468;2023-04-03T13:27:36;14.50;99.90
22450;DHT22;11392;57.390;-2.468;2023-04-03T13:30:17;14.50;99.90
22450;DHT22;11392;57.390;-2.468;2023-04-03T13:32:46;14.20;99.90
22450;DHT22;11392;57.390;-2.468;2023-04-03T13:35:28;14.50;99.90
22450;DHT22;11392;57.390;-2.468;2023-04-03T13:38:01;14.60;99.90
22450;DHT22;11392;57.390;-2.468;2023-04-03T13:40:29;14.70;99.90
22450;DHT22;11392;57.390;-2.468;2023-04-03T13:43:19;14.60;99.90
22450;DHT22;11392;57.390;-2.468;2023-04-03T13:46:24;14.20;99.90
22450;DHT22;11392;57.390;-2.468;2023-04-03T13:48:53;14.00;99.90
22450;DHT22;11392;57.390;-2.468;2023-04-03T13:51:24;13.90;99.90
22450;DHT22;11392;57.390;-2.468;2023-04-03T13:53:58;13.80;99.90
22450;DHT22;11392;57.390;-2.468;2023-04-03T14:04:26;14.10;99.90
22450;DHT22;11392;57.390;-2.468;2023-04-03T14:06:55;14.20;99.90
22450;DHT22;11392;57.390;-2.468;2023-04-03T14:09:24;14.10;99.90
22450;DHT22;11392;57.390;-2.468;2023-04-03T14:12:02;13.90;99.90
22450;DHT22;11392;57.390;-2.468;2023-04-03T14:14:34;14.10;99.90
22450;DHT22;11392;57.390;-2.468;2023-04-03T14:17:05;14.20;99.90
22450;DHT22;11392;57.390;-2.468;2023-04-03T14:19:52;13.90;99.90
22450;DHT22;11392;57.390;-2.468;2023-04-03T14:22:31;14.10;99.90
22450;DHT22;11392;57.390;-2.468;2023-04-03T14:24:59;13.80;99.90
22450;DHT22;11392;57.390;-2.468;2023-04-03T14:27:35;13.90;99.90
22450;DHT22;11392;57.390;-2.468;2023-04-03T14:30:04;13.90;99.90
22450;DHT22;11392;57.390;-2.468;2023-04-03T14:32:33;13.90;99.90
22450;DHT22;11392;57.390;-2.468;2023-04-03T14:35:00;13.90;99.90
22450;DHT22;11392;57.390;-2.468;2023-04-03T14:37:30;13.80;99.90
22450;DHT22;11392;57.390;-2.468;2023-04-03T14:39:59;13.80;99.90
22450;DHT22;11392;57.390;-2.468;2023-04-03T14:42:29;13.60;99.90
22450;DHT22;11392;57.390;-2.468;2023-04-03T14:44:59;13.70;99.90
22450;DHT22;11392;57.390;-2.468;2023-04-03T14:47:29;13.80;99.90
22450;DHT22;11392;57.390;-2.468;2023-04-03T14:50:03;13.70;99.90
22450;DHT22;11392;57.390;-2.468;2023-04-03T14:52:33;13.40;99.90
22450;DHT22;11392;57.390;-2.468;2023-04-03T14:55:04;13.60;99.90
22450;DHT22;11392;57.390;-2.468;2023-04-03T14:57:32;13.50;99.90
22450;DHT22;11392;57.390;-2.468;2023-04-03T15:00:00;13.50;99.90
22450;DHT22;11392;57.390;-2.468;2023-04-03T15:02:32;13.40;99.90
22450;DHT22;11392;57.390;-2.468;2023-04-03T15:05:01;13.40;99.90
22450;DHT22;11392;57.390;-2.468;2023-04-03T15:07:34;13.20;99.90
22450;DHT22;11392;57.390;-2.468;2023-04-03T15:10:13;13.30;99.90
22450;DHT22;11392;57.390;-2.468;2023-04-03T15:12:42;13.50;99.90
22450;DHT22;11392;57.390;-2.468;2023-04-03T15:15:09;13.60;99.90
22450;DHT22;11392;57.390;-2.468;2023-04-03T15:17:37;13.50;99.90
22450;DHT22;11392;57.390;-2.468;2023-04-03T15:20:15;13.40;99.90
22450;DHT22;11392;57.390;-2.468;2023-04-03T15:22:43;13.60;99.90
22450;DHT22;11392;57.390;-2.468;2023-04-03T15:25:10;13.40;99.90
22450;DHT22;11392;57.390;-2.468;2023-04-03T15:27:39;13.30;99.90
22450;DHT22;11392;57.390;-2.468;2023-04-03T15:30:11;13.10;99.90
22450;DHT22;11392;57.390;-2.468;2023-04-03T15:32:40;12.80;99.90
22450;DHT22;11392;57.390;-2.468;2023-04-03T15:35:07;12.90;99.90
22450;DHT22;11392;57.390;-2.468;2023-04-03T15:37:35;12.90;99.90
22450;DHT22;11392;57.390;-2.468;2023-04-03T15:40:04;12.60;99.90
22450;DHT22;11392;57.390;-2.468;2023-04-03T15:42:32;12.40;99.90
22450;DHT22;11392;57.390;-2.468;2023-04-03T15:44:59;12.30;99.90
22450;DHT22;11392;57.390;-2.468;2023-04-03T15:47:26;12.10;99.90
22450;DHT22;11392;57.390;-2.468;2023-04-03T15:49:54;11.90;99.90
22450;DHT22;11392;57.390;-2.468;2023-04-03T15:52:22;11.80;99.90
22450;DHT22;11392;57.390;-2.468;2023-04-03T15:54:49;11.60;99.90
22450;DHT22;11392;57.390;-2.468;2023-04-03T15:57:16;11.60;99.90
22450;DHT22;11392;57.390;-2.468;2023-04-03T15:59:44;11.40;99.90
22450;DHT22;11392;57.390;-2.468;2023-04-03T16:02:12;11.20;99.90
22450;DHT22;11392;57.390;-2.468;2023-04-03T16:04:40;11.00;99.90
22450;DHT22;11392;57.390;-2.468;2023-04-03T16:07:07;10.80;99.90
22450;DHT22;11392;57.390;-2.468;2023-04-03T16:09:35;10.70;99.90
22450;DHT22;11392;57.390;-2.468;2023-04-03T16:12:03;10.60;99.90
22450;DHT22;11392;57.390;-2.468;2023-04-03T16:14:30;10.40;99.90
22450;DHT22;11392;57.390;-2.468;2023-04-03T16:16:58;10.30;99.90
22450;DHT22;11392;57.390;-2.468;2023-04-03T16:19:26;10.20;99.90
22450;DHT22;11392;57.390;-2.468;2023-04-03T16:21:54;10.20;99.90
22450;DHT22;11392;57.390;-2.468;2023-04-03T16:24:22;10.10;99.90
22450;DHT22;11392;57.390;-2.468;2023-04-03T16:26:49;10.00;99.90
22450;DHT22;11392;57.390;-2.468;2023-04-03T16:29:16;9.90;99.90
22450;DHT22;11392;57.390;-2.468;2023-04-03T16:31:43;9.80;99.90
22450;DHT22;11392;57.390;-2.468;2023-04-03T16:34:12;9.80;99.90
22450;DHT22;11392;57.390;-2.468;2023-04-03T16:36:39;9.70;99.90
22450;DHT22;11392;57.390;-2.468;2023-04-03T16:39:06;9.50;99.90
22450;DHT22;11392;57.390;-2.468;2023-04-03T16:41:37;9.40;99.90
22450;DHT22;11392;57.390;-2.468;2023-04-03T16:44:04;9.30;99.90
22450;DHT22;11392;57.390;-2.468;2023-04-03T16:46:34;9.30;99.90
22450;DHT22;11392;57.390;-2.468;2023-04-03T16:49:01;9.20;99.90
22450;DHT22;11392;57.390;-2.468;2023-04-03T16:51:28;9.20;99.90
22450;DHT22;11392;57.390;-2.468;2023-04-03T16:53:56;9.10;99.90
22450;DHT22;11392;57.390;-2.468;2023-04-03T16:56:24;9.20;99.90
22450;DHT22;11392;57.390;-2.468;2023-04-03T16:58:53;9.10;99.90
22450;DHT22;11392;57.390;-2.468;2023-04-03T17:01:22;9.10;99.90
22450;DHT22;11392;57.390;-2.468;2023-04-03T17:03:49;9.00;99.90
22450;DHT22;11392;57.390;-2.468;2023-04-03T17:06:19;8.80;99.90
22450;DHT22;11392;57.390;-2.468;2023-04-03T17:08:49;8.90;99.90
22450;DHT22;11392;57.390;-2.468;2023-04-03T17:11:17;8.80;99.90
22450;DHT22;11392;57.390;-2.468;2023-04-03T17:13:44;8.70;99.90
22450;DHT22;11392;57.390;-2.468;2023-04-03T17:16:14;8.70;99.90
22450;DHT22;11392;57.390;-2.468;2023-04-03T17:18:42;8.60;99.90
22450;DHT22;11392;57.390;-2.468;2023-04-03T17:21:11;8.50;99.90
22450;DHT22;11392;57.390;-2.468;2023-04-03T17:23:41;8.40;99.90
22450;DHT22;11392;57.390;-2.468;2023-04-03T17:26:09;8.30;99.90
22450;DHT22;11392;57.390;-2.468;2023-04-03T17:28:36;8.30;99.90
22450;DHT22;11392;57.390;-2.468;2023-04-03T17:31:05;8.20;99.90
22450;DHT22;11392;57.390;-2.468;2023-04-03T17:33:32;8.10;99.90
22450;DHT22;11392;57.390;-2.468;2023-04-03T17:36:00;8.10;99.90
22450;DHT22;11392;57.390;-2.468;2023-04-03T17:38:31;8.10;99.90